createdAt,value
2022-10-22T00:08:01.430Z,0
2022-10-22T00:09:33.773Z,0
2022-10-22T00:14:53.002Z,0
2022-10-22T00:20:12.137Z,0
2022-10-22T00:32:05.852Z,0
2022-10-22T00:36:09.914Z,0
2022-10-22T00:41:28.683Z,0
2022-10-22T00:46:47.909Z,0
2022-10-22T00:52:15.749Z,0
2022-10-22T00:57:26.895Z,0
2022-10-22T01:04:01.029Z,0
2022-10-22T01:13:25.987Z,0
2022-10-22T01:18:43.693Z,0
2022-10-22T01:24:03.068Z,0
2022-10-22T01:29:22.435Z,0
2022-10-22T01:34:41.189Z,0
2022-10-22T01:40:00.057Z,0
2022-10-22T01:45:18.915Z,0
2022-10-22T01:57:12.278Z,0
2022-10-22T02:01:17.372Z,0
2022-10-22T02:06:36.886Z,0
2022-10-22T02:11:54.102Z,0
2022-10-22T02:17:12.830Z,0
2022-10-22T02:22:31.592Z,0
2022-10-22T02:28:16.144Z,0
2022-10-22T02:33:35.726Z,0
2022-10-22T02:38:54.007Z,0
2022-10-22T02:44:14.211Z,0
2022-10-22T02:49:32.630Z,0
2022-10-22T02:54:51.752Z,0
2022-10-22T03:00:12.116Z,0
2022-10-22T03:10:49.639Z,0
2022-10-22T03:16:09.089Z,0
2022-10-22T03:21:28.640Z,0
2022-10-22T03:26:48.666Z,0
2022-10-22T03:33:22.847Z,0
2022-10-22T03:37:28.908Z,0
2022-10-22T03:42:46.340Z,0
2022-10-22T03:53:24.820Z,0
2022-10-22T03:58:43.816Z,0
2022-10-22T04:09:22.654Z,0
2022-10-22T04:14:42.011Z,0
2022-10-22T04:20:01.087Z,0
2022-10-22T04:25:19.881Z,0
2022-10-22T04:30:39.447Z,0
2022-10-22T04:35:58.324Z,0
2022-10-22T04:41:16.395Z,0
2022-10-22T04:51:56.408Z,0
2022-10-22T04:57:16.054Z,0
2022-10-22T05:07:54.227Z,0
2022-10-22T05:14:28.377Z,0
2022-10-22T05:18:32.241Z,0
2022-10-22T05:23:51.048Z,0
2022-10-22T05:35:46.658Z,0
2022-10-22T05:40:06.414Z,0
2022-10-22T05:45:07.725Z,0.006
2022-10-22T05:50:27.489Z,0.0167
2022-10-22T05:55:46.146Z,0.0226
2022-10-22T06:01:05.280Z,0.0265
2022-10-22T06:06:24.456Z,0.0285
2022-10-22T06:11:51.891Z,0.04
2022-10-22T06:17:03.341Z,0.0525
2022-10-22T06:22:23.182Z,0.0579
2022-10-22T06:33:01.699Z,0.0737
2022-10-22T06:38:20.608Z,0.0809
2022-10-22T06:43:39.854Z,0.0922
2022-10-22T06:54:18.348Z,0.1077
2022-10-22T06:59:37.969Z,0.1097
2022-10-22T07:06:12.097Z,0.1146
2022-10-22T07:15:48.987Z,0.1163
2022-10-22T07:26:15.851Z,0.1218
2022-10-22T07:31:34.777Z,0.1139
2022-10-22T07:36:53.631Z,0.1181
2022-10-22T07:42:13.364Z,0.149
2022-10-22T07:47:32.217Z,0.1254
2022-10-22T07:52:52.178Z,0.1269
2022-10-22T07:58:11.115Z,0.1225
2022-10-22T08:08:49.619Z,0.1077
2022-10-22T08:14:09.106Z,0.1128
2022-10-22T08:19:28.223Z,0.1464
2022-10-22T08:24:46.332Z,0.4826
2022-10-22T08:30:05.378Z,0.2316
2022-10-22T08:35:24.883Z,0.4381
2022-10-22T08:40:44.377Z,0.3665
2022-10-22T08:51:23.474Z,0.3813
2022-10-22T08:56:42.782Z,0.9094
2022-10-22T09:03:16.984Z,0.4574
2022-10-22T09:07:33.493Z,0.6588
2022-10-22T09:12:40.825Z,0.6543
2022-10-22T09:18:00.335Z,1.3061
2022-10-22T09:23:19.815Z,0.902
2022-10-22T09:31:52.893Z,1.205
2022-10-22T09:33:58.165Z,1.2434
2022-10-22T09:49:54.500Z,1.4841
2022-10-22T09:55:13.820Z,1.54
2022-10-22T10:00:32.934Z,1.8
2022-10-22T10:05:52.381Z,1.7413
2022-10-22T10:11:11.136Z,1.5572
2022-10-22T10:16:30.735Z,1.6058
2022-10-22T10:21:49.817Z,1.3644
2022-10-22T10:28:23.971Z,1.7968
2022-10-22T10:32:28.415Z,1.6819
2022-10-22T10:37:47.415Z,1.6594
2022-10-22T10:43:06.529Z,0.2135
2022-10-22T10:48:25.286Z,1.56
2022-10-22T10:53:44.021Z,1.6805
2022-10-22T10:59:03.486Z,1.6531
2022-10-22T11:05:37.671Z,1.7125
2022-10-22T11:15:01.096Z,1.8147
2022-10-22T11:20:20.378Z,2.0487
2022-10-22T11:25:38.713Z,1.2447
2022-10-22T11:30:58.805Z,0.344
2022-10-22T11:36:17.411Z,1.6826
2022-10-22T11:41:37.129Z,1.3382
2022-10-22T11:46:55.287Z,1.5533
2022-10-22T11:57:34.382Z,1.7442
2022-10-22T12:02:53.264Z,1.4451
2022-10-22T12:13:31.245Z,1.3309
2022-10-22T12:20:05.458Z,1.4686
2022-10-22T12:24:10.089Z,1.3261
2022-10-22T12:31:08.686Z,1.2264
2022-10-22T12:40:08.516Z,1.0675
2022-10-22T12:45:27.723Z,0.8619
2022-10-22T12:50:46.964Z,0.8757
2022-10-22T12:56:06.020Z,0.8632
2022-10-22T13:01:24.716Z,0.9323
2022-10-22T13:07:58.848Z,0.7408
2022-10-22T13:12:15.389Z,0.2744
2022-10-22T13:17:24.382Z,0.3068
2022-10-22T13:22:42.549Z,0.2144
2022-10-22T13:28:01.294Z,0.2227
2022-10-22T13:33:20.278Z,0.3977
2022-10-22T13:39:54.453Z,0.2996
2022-10-22T13:49:16.868Z,0.2027
2022-10-22T13:54:36.100Z,0.2056
2022-10-22T13:59:54.127Z,0.2052
2022-10-22T14:05:14.220Z,0.1895
2022-10-22T14:10:33.030Z,0.2039
2022-10-22T14:17:07.263Z,0.2125
2022-10-22T14:21:13.125Z,0.2854
2022-10-22T14:31:49.711Z,0.2118
2022-10-22T14:37:08.593Z,0.2495
2022-10-22T14:42:27.454Z,0.1485
2022-10-22T14:47:46.960Z,0.1273
2022-10-22T14:53:06.502Z,0.1179
2022-10-22T14:58:26.085Z,0.1028
2022-10-22T15:03:45.634Z,0.0847
2022-10-22T15:15:39.949Z,0.1175
2022-10-22T15:19:55.449Z,0.1132
2022-10-22T15:25:03.000Z,0.0697
2022-10-22T15:30:22.271Z,0.0623
2022-10-22T15:35:41.207Z,0.0555
2022-10-22T15:41:02.819Z,0.0593
2022-10-22T15:46:30.868Z,0.0561
2022-10-22T15:57:04.733Z,0.0433
2022-10-22T16:02:14.800Z,0.0381
2022-10-22T16:12:53.316Z,0.0283
2022-10-22T16:18:12.696Z,0.022
2022-10-22T16:23:32.643Z,0.0125
2022-10-22T16:28:52.148Z,0.003
2022-10-22T16:34:10.953Z,0
2022-10-22T16:39:31.074Z,0
2022-10-22T16:44:49.951Z,0
2022-10-22T16:55:29.175Z,0
2022-10-22T17:00:48.831Z,0
2022-10-22T17:06:07.829Z,0
2022-10-22T17:11:27.345Z,0
2022-10-22T17:16:46.414Z,0
2022-10-22T17:22:05.853Z,0
2022-10-22T17:27:25.929Z,0
2022-10-22T17:34:00.134Z,0
2022-10-22T17:38:05.476Z,0
2022-10-22T17:43:22.973Z,0
2022-10-22T17:54:02.550Z,0
2022-10-22T17:59:21.874Z,0
2022-10-22T18:04:39.856Z,0
2022-10-22T18:09:59.747Z,0
2022-10-22T18:15:18.645Z,0
2022-10-22T18:20:37.658Z,0
2022-10-22T18:26:07.264Z,0
2022-10-22T18:31:16.200Z,0
2022-10-22T18:36:35.093Z,0
2022-10-22T18:41:54.723Z,0
2022-10-22T18:47:15.083Z,0
2022-10-22T18:52:33.830Z,0
2022-10-22T18:57:53.016Z,0
2022-10-22T19:03:12.362Z,0
2022-10-22T19:08:31.221Z,0
2022-10-22T19:19:10.108Z,0
2022-10-22T19:24:29.759Z,0
2022-10-22T19:29:47.875Z,0
2022-10-22T19:35:17.336Z,0
2022-10-22T19:40:26.303Z,0
2022-10-22T19:45:45.944Z,0
2022-10-22T19:56:24.719Z,0
2022-10-22T20:01:43.863Z,0
2022-10-22T20:07:02.281Z,0
2022-10-22T20:17:40.408Z,0
2022-10-22T20:23:34.239Z,0
2022-10-22T20:28:53.509Z,0
2022-10-22T20:34:13.047Z,0
2022-10-22T20:44:51.720Z,0
2022-10-22T20:50:10.586Z,0
2022-10-22T21:00:49.194Z,0
2022-10-22T21:06:08.507Z,0
2022-10-22T21:11:28.312Z,0
2022-10-22T21:16:47.272Z,0
2022-10-22T21:22:06.780Z,0
2022-10-22T21:27:24.959Z,0
2022-10-22T21:32:44.181Z,0
2022-10-22T21:43:22.846Z,0
2022-10-22T21:49:56.997Z,0
2022-10-22T21:54:01.857Z,0
2022-10-22T21:59:21.243Z,0
2022-10-22T22:07:54.342Z,0
2022-10-22T22:10:00.439Z,0
2022-10-22T22:15:19.723Z,0
2022-10-22T22:25:58.132Z,0
2022-10-22T22:31:15.728Z,0
2022-10-22T22:38:14.338Z,0
2022-10-22T22:41:54.100Z,0
2022-10-22T22:47:13.269Z,0
2022-10-22T22:52:32.430Z,0
2022-10-22T22:57:52.037Z,0
2022-10-22T23:08:29.705Z,0
2022-10-22T23:13:49.131Z,0
2022-10-22T23:19:08.288Z,0
2022-10-22T23:24:28.779Z,0
2022-10-22T23:29:47.027Z,0
2022-10-22T23:35:07.227Z,0
2022-10-22T23:40:26.210Z,0
2022-10-22T23:51:04.773Z,0
2022-10-22T23:56:23.663Z,0
